Time;durP1;ratioP1;P1;durP2;ratioP2;P2;SDS_P1;SDS_P2;PMS_P1;PMS_P2;Temp;Humidity;BMP_temperature;BMP_pressure;BME280_temperature;BME280_humidity;BME280_pressure;Samples;Min_cycle;Max_cycle;Signal;HPM_P1;HPM_P2
2024/01/13 00:00:38;;;;;;;49.00;24.53;;;5.90;99.90;;;;;;7285335;19;20185;-86
2024/01/13 00:03:04;;;;;;;51.37;24.53;;;5.80;99.90;;;;;;7285502;19;20533;-86
2024/01/13 00:05:29;;;;;;;52.57;25.00;;;5.80;99.90;;;;;;7284162;19;20192;-86
2024/01/13 00:07:55;;;;;;;45.40;23.30;;;5.70;99.90;;;;;;7282862;19;20214;-86
2024/01/13 00:10:21;;;;;;;45.77;23.13;;;5.70;99.90;;;;;;7307121;19;20256;-86
2024/01/13 00:12:47;;;;;;;42.60;22.67;;;5.80;99.90;;;;;;7284002;19;20181;-84
2024/01/13 00:15:13;;;;;;;49.20;24.27;;;5.90;99.90;;;;;;7283444;19;20184;-86
2024/01/13 00:17:39;;;;;;;46.30;24.27;;;5.90;99.90;;;;;;7284055;19;20177;-85
2024/01/13 00:20:05;;;;;;;50.00;22.83;;;6.00;99.90;;;;;;7283509;19;20202;-86
2024/01/13 00:22:31;;;;;;;53.97;26.30;;;6.00;99.90;;;;;;7293120;19;20846;-84
2024/01/13 00:24:57;;;;;;;48.23;24.20;;;6.00;99.90;;;;;;7283355;19;20216;-83
2024/01/13 00:27:22;;;;;;;51.17;24.70;;;6.00;99.90;;;;;;7291219;19;20281;-83
2024/01/13 00:29:48;;;;;;;48.97;24.83;;;6.00;99.90;;;;;;7303421;19;20189;-84
2024/01/13 00:32:14;;;;;;;50.10;23.80;;;6.00;99.90;;;;;;7284182;19;20197;-83
2024/01/13 00:34:39;;;;;;;49.20;23.30;;;5.90;99.90;;;;;;7281742;19;20195;-83
2024/01/13 00:37:05;;;;;;;42.30;22.10;;;5.90;99.90;;;;;;7282152;19;20271;-83
2024/01/13 00:39:31;;;;;;;47.80;22.90;;;5.90;99.90;;;;;;7283803;19;20188;-83
2024/01/13 00:41:57;;;;;;;55.57;24.27;;;5.90;99.90;;;;;;7283310;19;20278;-83
2024/01/13 00:44:23;;;;;;;44.80;23.27;;;6.00;99.90;;;;;;7284371;19;20230;-82
2024/01/13 00:46:49;;;;;;;47.10;24.23;;;6.10;99.90;;;;;;7305764;19;20207;-83
2024/01/13 00:49:15;;;;;;;48.20;23.23;;;6.10;99.90;;;;;;7282604;19;20197;-83
2024/01/13 00:51:41;;;;;;;49.37;24.23;;;6.20;99.90;;;;;;7284981;19;20193;-83
2024/01/13 00:54:10;;;;;;;44.63;23.00;;;6.30;99.90;;;;;;7280067;19;20193;-84
2024/01/13 00:56:36;;;;;;;45.33;23.20;;;6.30;99.90;;;;;;7282890;19;20198;-84
2024/01/13 00:59:02;;;;;;;46.27;22.63;;;6.30;99.90;;;;;;7282625;19;20188;-84
2024/01/13 01:01:27;;;;;;;50.67;23.23;;;6.30;99.90;;;;;;7284217;19;20203;-83
2024/01/13 01:03:53;;;;;;;46.47;23.10;;;6.40;99.90;;;;;;7283652;19;20249;-82
2024/01/13 01:06:19;;;;;;;46.10;23.47;;;6.40;99.90;;;;;;7305595;19;20190;-82
2024/01/13 01:08:45;;;;;;;47.20;21.90;;;6.30;99.90;;;;;;7282995;19;20205;-83
2024/01/13 01:11:12;;;;;;;42.47;23.73;;;6.30;99.90;;;;;;7282575;19;20227;-82
2024/01/13 01:13:38;;;;;;;41.97;23.37;;;6.30;99.90;;;;;;7281297;19;20607;-82
2024/01/13 01:16:04;;;;;;;43.50;22.60;;;6.20;99.90;;;;;;7280208;19;20187;-82
2024/01/13 01:18:30;;;;;;;44.73;23.20;;;6.20;99.90;;;;;;7280980;19;20199;-83
2024/01/13 01:20:56;;;;;;;43.07;22.43;;;6.30;99.90;;;;;;7281880;19;20253;-82
2024/01/13 01:23:24;;;;;;;48.93;22.00;;;6.40;99.90;;;;;;7289762;19;20677;-82
2024/01/13 01:25:50;;;;;;;44.23;21.80;;;6.40;99.90;;;;;;7302957;19;20188;-83
2024/01/13 01:28:16;;;;;;;42.50;21.57;;;6.50;99.90;;;;;;7282658;19;20219;-82
2024/01/13 01:30:42;;;;;;;47.10;22.17;;;6.50;99.90;;;;;;7281699;19;20214;-83
2024/01/13 01:33:07;;;;;;;44.37;22.27;;;6.40;99.90;;;;;;7282276;19;20273;-84
2024/01/13 01:35:33;;;;;;;44.80;23.13;;;6.40;99.90;;;;;;7281097;19;20193;-84
2024/01/13 01:37:59;;;;;;;40.80;22.10;;;6.30;99.90;;;;;;7279232;19;20191;-84
2024/01/13 01:40:26;;;;;;;41.53;22.40;;;6.30;99.90;;;;;;7282547;19;20193;-84
2024/01/13 01:42:52;;;;;;;40.03;22.33;;;6.30;99.90;;;;;;7303090;19;20232;-83
2024/01/13 01:45:18;;;;;;;40.53;21.43;;;6.30;99.90;;;;;;7305531;19;20201;-84
2024/01/13 01:47:45;;;;;;;41.10;21.87;;;6.30;99.90;;;;;;7288782;19;20696;-84
2024/01/13 01:50:11;;;;;;;41.73;22.33;;;6.20;99.90;;;;;;7288618;19;20193;-84
2024/01/13 01:52:38;;;;;;;42.33;22.10;;;6.30;99.90;;;;;;7291376;19;20194;-84
2024/01/13 01:55:06;;;;;;;42.63;21.90;;;6.30;99.90;;;;;;7289453;19;20194;-84
2024/01/13 01:57:38;;;;;;;42.13;21.07;;;6.30;99.90;;;;;;7286365;19;20197;-84
2024/01/13 02:00:07;;;;;;;41.63;21.73;;;6.30;99.90;;;;;;7288136;19;20256;-85
2024/01/13 02:02:38;;;;;;;38.77;20.87;;;6.40;99.90;;;;;;7289711;19;20281;-84
2024/01/13 02:05:04;;;;;;;41.00;20.93;;;6.40;99.90;;;;;;7285988;19;20193;-84
2024/01/13 02:07:32;;;;;;;36.40;20.00;;;6.40;99.90;;;;;;7286975;19;20193;-85
2024/01/13 02:09:59;;;;;;;40.00;20.17;;;6.30;99.90;;;;;;7286682;19;20185;-85
2024/01/13 02:12:25;;;;;;;41.73;21.37;;;6.30;99.90;;;;;;7286882;19;20205;-84
2024/01/13 02:14:51;;;;;;;41.73;21.87;;;6.30;99.90;;;;;;7310300;19;20189;-84
2024/01/13 02:17:16;;;;;;;41.33;21.47;;;6.30;99.90;;;;;;7285482;19;20530;-83
2024/01/13 02:19:42;;;;;;;35.70;20.37;;;6.20;99.90;;;;;;7291449;19;20195;-84
2024/01/13 02:22:08;;;;;;;42.77;20.97;;;6.20;99.90;;;;;;7293886;19;20217;-84
2024/01/13 02:24:33;;;;;;;42.30;20.60;;;6.10;99.90;;;;;;7293945;19;20192;-83
2024/01/13 02:26:59;;;;;;;38.87;20.47;;;6.20;99.90;;;;;;7307205;19;20206;-84
2024/01/13 02:29:25;;;;;;;41.13;19.90;;;6.20;99.90;;;;;;7310438;19;20190;-83
2024/01/13 02:31:50;;;;;;;37.07;20.13;;;6.10;99.90;;;;;;7331747;19;20191;-83
2024/01/13 02:34:16;;;;;;;40.23;21.30;;;6.10;99.90;;;;;;7302145;19;20199;-84
2024/01/13 02:36:42;;;;;;;40.73;21.07;;;6.00;99.90;;;;;;7285749;19;20202;-84
2024/01/13 02:39:08;;;;;;;40.83;19.27;;;6.00;99.90;;;;;;7286972;19;20181;-84
2024/01/13 02:41:33;;;;;;;39.47;20.13;;;6.10;99.90;;;;;;7287107;19;20192;-84
2024/01/13 02:43:59;;;;;;;38.93;20.27;;;6.20;99.90;;;;;;7286856;19;20187;-84
2024/01/13 02:46:24;;;;;;;39.00;20.70;;;6.10;99.90;;;;;;7288173;19;20640;-84
2024/01/13 02:48:55;;;;;;;44.27;20.97;;;6.00;99.90;;;;;;7308144;19;20183;-84
2024/01/13 02:51:21;;;;;;;38.80;20.57;;;6.00;99.90;;;;;;7287352;19;20221;-84
2024/01/13 02:53:47;;;;;;;42.63;21.07;;;6.10;99.90;;;;;;7288174;19;20621;-84
2024/01/13 02:56:13;;;;;;;42.90;21.70;;;6.10;99.90;;;;;;7287158;19;20696;-84
2024/01/13 02:58:39;;;;;;;41.20;21.17;;;6.20;99.90;;;;;;7287108;19;20188;-84
2024/01/13 03:01:07;;;;;;;41.40;22.70;;;6.20;99.90;;;;;;7286763;19;20213;-84
2024/01/13 03:03:36;;;;;;;43.07;20.73;;;6.20;99.90;;;;;;7285773;19;20184;-84
2024/01/13 03:06:03;;;;;;;40.57;21.13;;;6.20;99.90;;;;;;7287251;19;20248;-82
2024/01/13 03:08:29;;;;;;;38.37;20.47;;;6.20;99.90;;;;;;7285592;19;20184;-84
2024/01/13 03:10:55;;;;;;;43.27;20.67;;;6.10;99.90;;;;;;7285958;19;20187;-83
2024/01/13 03:13:21;;;;;;;40.80;20.50;;;6.00;99.90;;;;;;7308451;19;20557;-84
2024/01/13 03:15:47;;;;;;;42.10;21.00;;;6.00;99.90;;;;;;7286545;19;20183;-83
2024/01/13 03:18:12;;;;;;;42.93;21.47;;;5.90;99.90;;;;;;7284429;19;20227;-83
2024/01/13 03:20:38;;;;;;;42.77;21.53;;;5.80;99.90;;;;;;7284882;19;20219;-84
2024/01/13 03:23:04;;;;;;;40.07;20.53;;;5.90;99.90;;;;;;7281871;19;20191;-84
2024/01/13 03:25:30;;;;;;;41.23;21.10;;;5.90;99.90;;;;;;7285209;19;20203;-83
2024/01/13 03:27:55;;;;;;;41.97;21.03;;;5.90;99.90;;;;;;7283871;19;20181;-83
2024/01/13 03:30:21;;;;;;;41.07;21.33;;;5.90;99.90;;;;;;7307122;19;20181;-84
2024/01/13 03:32:47;;;;;;;42.30;21.60;;;6.00;99.90;;;;;;7285397;19;20252;-84
2024/01/13 03:35:14;;;;;;;44.13;21.13;;;5.90;99.90;;;;;;7282211;19;20183;-84
2024/01/13 03:37:40;;;;;;;41.10;20.87;;;6.00;99.90;;;;;;7283931;19;20195;-84
2024/01/13 03:40:07;;;;;;;39.70;20.73;;;6.00;99.90;;;;;;7284686;19;20240;-82
2024/01/13 03:42:33;;;;;;;45.87;21.77;;;6.00;99.90;;;;;;7285093;19;20240;-83
2024/01/13 03:44:59;;;;;;;40.20;19.53;;;6.00;99.90;;;;;;7284711;19;20667;-83
2024/01/13 03:47:25;;;;;;;37.30;18.90;;;6.00;99.90;;;;;;7284788;19;20179;-84
2024/01/13 03:49:50;;;;;;;33.93;18.30;;;6.00;99.90;;;;;;7306680;19;20650;-84
2024/01/13 03:52:16;;;;;;;34.77;18.93;;;5.80;99.90;;;;;;7283015;19;20291;-85
2024/01/13 03:54:42;;;;;;;38.73;18.07;;;5.90;99.90;;;;;;7283973;19;20198;-84
2024/01/13 03:57:08;;;;;;;36.97;18.50;;;5.80;99.90;;;;;;7281081;19;20562;-84
2024/01/13 03:59:33;;;;;;;37.77;18.40;;;5.80;99.90;;;;;;7285182;19;20187;-84
2024/01/13 04:01:59;;;;;;;37.60;19.43;;;5.80;99.90;;;;;;7283184;19;20870;-84
2024/01/13 04:04:25;;;;;;;32.23;17.53;;;5.80;99.90;;;;;;7281773;19;20302;-83
2024/01/13 04:06:50;;;;;;;32.37;16.97;;;5.80;99.90;;;;;;7306573;19;20250;-84
2024/01/13 04:09:16;;;;;;;38.97;19.03;;;5.80;99.90;;;;;;7283231;19;20205;-84
2024/01/13 04:11:42;;;;;;;37.03;18.70;;;5.90;99.90;;;;;;7283167;19;20270;-84
2024/01/13 04:14:08;;;;;;;32.83;18.07;;;5.90;99.90;;;;;;7282246;19;20199;-82
2024/01/13 04:16:33;;;;;;;31.17;17.10;;;5.90;99.90;;;;;;7282639;19;20271;-83
2024/01/13 04:18:59;;;;;;;30.90;16.90;;;5.80;99.90;;;;;;7282008;19;20188;-83
2024/01/13 04:21:25;;;;;;;37.27;18.40;;;5.80;99.90;;;;;;7282258;19;20255;-82
2024/01/13 04:23:51;;;;;;;32.90;18.23;;;5.80;99.90;;;;;;7304883;19;20185;-84
2024/01/13 04:26:21;;;;;;;39.10;18.13;;;5.80;99.90;;;;;;7283899;19;20193;-84
2024/01/13 04:28:47;;;;;;;35.30;17.50;;;5.80;99.90;;;;;;7282912;19;20190;-84
2024/01/13 04:31:13;;;;;;;35.77;17.87;;;5.70;99.90;;;;;;7283919;19;20211;-84
2024/01/13 04:33:39;;;;;;;30.30;17.47;;;5.60;99.90;;;;;;7282250;19;20196;-83
2024/01/13 04:36:05;;;;;;;31.10;17.47;;;5.60;99.90;;;;;;7282422;19;20536;-83
2024/01/13 04:38:31;;;;;;;33.33;17.73;;;5.70;99.90;;;;;;7282331;19;20193;-83
2024/01/13 04:40:56;;;;;;;32.13;17.03;;;5.70;99.90;;;;;;7281648;19;20192;-84
2024/01/13 04:43:22;;;;;;;31.13;17.07;;;5.70;99.90;;;;;;7303043;19;20201;-81
2024/01/13 04:45:48;;;;;;;31.37;17.43;;;5.70;99.90;;;;;;7297094;19;20184;-84
2024/01/13 04:48:18;;;;;;;30.20;16.80;;;5.60;99.90;;;;;;7281786;19;20206;-83
2024/01/13 04:50:44;;;;;;;31.70;16.43;;;5.70;99.90;;;;;;7282955;19;20203;-84
2024/01/13 04:53:09;;;;;;;32.67;17.67;;;5.80;99.90;;;;;;7281082;19;20193;-83
2024/01/13 04:55:35;;;;;;;30.90;16.67;;;5.80;99.90;;;;;;7282687;19;20268;-84
2024/01/13 04:58:01;;;;;;;36.47;18.23;;;5.80;99.90;;;;;;7282693;19;20197;-84
2024/01/13 05:00:27;;;;;;;32.57;17.20;;;5.70;99.90;;;;;;7278598;19;20185;-83
2024/01/13 05:02:53;;;;;;;30.13;17.23;;;5.70;99.90;;;;;;7293934;19;20486;-83
2024/01/13 05:05:19;;;;;;;32.30;17.60;;;5.70;99.90;;;;;;7301645;19;20191;-83
2024/01/13 05:07:44;;;;;;;32.97;17.67;;;5.60;99.90;;;;;;7281188;19;20293;-84
2024/01/13 05:10:11;;;;;;;30.40;17.23;;;5.60;99.90;;;;;;7281117;19;20202;-83
2024/01/13 05:12:37;;;;;;;29.13;16.43;;;5.60;99.90;;;;;;7283001;19;20201;-83
2024/01/13 05:15:03;;;;;;;28.77;16.60;;;5.60;99.90;;;;;;7281088;19;20183;-83
2024/01/13 05:17:29;;;;;;;28.43;15.83;;;5.60;99.90;;;;;;7286251;19;20205;-83
2024/01/13 05:19:54;;;;;;;28.57;15.70;;;5.70;99.90;;;;;;7290774;19;20184;-83
2024/01/13 05:22:21;;;;;;;27.30;15.40;;;5.80;99.90;;;;;;7307793;19;20183;-83
2024/01/13 05:24:46;;;;;;;26.17;14.47;;;5.80;99.90;;;;;;7287112;19;20195;-83
2024/01/13 05:27:14;;;;;;;27.77;15.30;;;5.70;99.90;;;;;;7286529;19;20207;-83
2024/01/13 05:29:40;;;;;;;32.53;16.07;;;5.70;99.90;;;;;;7283328;19;20205;-83
2024/01/13 05:32:06;;;;;;;28.67;15.40;;;5.70;99.90;;;;;;7286415;19;20191;-83
2024/01/13 05:34:31;;;;;;;29.07;14.97;;;5.50;99.90;;;;;;7373343;19;20191;-83
2024/01/13 05:36:57;;;;;;;28.27;15.20;;;5.60;99.90;;;;;;7355208;19;20256;-83
2024/01/13 05:39:23;;;;;;;26.50;15.43;;;5.60;99.90;;;;;;7300091;19;20193;-84
2024/01/13 05:41:48;;;;;;;28.83;16.57;;;5.60;99.90;;;;;;7301755;19;20181;-84
2024/01/13 05:44:14;;;;;;;29.60;15.30;;;5.60;99.90;;;;;;7286609;19;20204;-84
2024/01/13 05:46:40;;;;;;;27.03;16.07;;;5.70;99.90;;;;;;7286452;19;20188;-83
2024/01/13 05:49:08;;;;;;;30.57;16.30;;;5.80;99.90;;;;;;7286281;19;20203;-84
2024/01/13 05:51:35;;;;;;;26.83;15.80;;;5.90;99.90;;;;;;7287081;19;20244;-84
2024/01/13 05:54:01;;;;;;;29.70;16.60;;;5.90;99.90;;;;;;7285748;19;20192;-84
2024/01/13 05:56:27;;;;;;;30.20;16.50;;;6.00;99.90;;;;;;7285425;19;20591;-84
2024/01/13 05:58:52;;;;;;;25.67;15.37;;;5.90;99.90;;;;;;7308026;19;20244;-84
2024/01/13 06:01:18;;;;;;;28.60;14.87;;;5.90;99.90;;;;;;7286660;19;20300;-85
2024/01/13 06:03:44;;;;;;;28.33;15.63;;;5.90;99.90;;;;;;7285172;19;20272;-84
2024/01/13 06:06:10;;;;;;;29.63;16.40;;;5.80;99.90;;;;;;7286006;19;20216;-84
2024/01/13 06:08:35;;;;;;;29.30;16.00;;;5.70;99.90;;;;;;7284384;19;20294;-84
2024/01/13 06:11:01;;;;;;;27.13;15.70;;;5.80;99.90;;;;;;7283755;19;20200;-84
2024/01/13 06:13:28;;;;;;;30.60;16.13;;;5.80;99.90;;;;;;7286480;19;20202;-84
2024/01/13 06:15:54;;;;;;;31.93;16.87;;;5.80;99.90;;;;;;7292816;19;20260;-84
2024/01/13 06:18:20;;;;;;;29.87;16.63;;;5.90;99.90;;;;;;7306983;19;20248;-84
2024/01/13 06:20:46;;;;;;;31.47;17.10;;;5.90;99.90;;;;;;7285572;19;20193;-84
2024/01/13 06:23:11;;;;;;;31.83;16.97;;;5.80;99.90;;;;;;7286206;19;20682;-85
2024/01/13 06:25:38;;;;;;;32.17;17.30;;;5.90;99.90;;;;;;7286743;19;20302;-84
2024/01/13 06:28:03;;;;;;;33.77;18.53;;;5.90;99.90;;;;;;7285449;19;20200;-84
2024/01/13 06:30:29;;;;;;;35.13;19.37;;;5.90;99.90;;;;;;7282681;19;20200;-84
2024/01/13 06:32:55;;;;;;;36.73;18.97;;;6.00;99.90;;;;;;7285027;19;20213;-83
2024/01/13 06:35:21;;;;;;;35.97;18.83;;;6.00;99.90;;;;;;7307977;19;20660;-84
2024/01/13 06:37:46;;;;;;;34.87;19.07;;;5.80;99.90;;;;;;7283217;19;20190;-85
2024/01/13 06:40:12;;;;;;;45.03;20.17;;;5.70;99.90;;;;;;7281449;19;20192;-84
2024/01/13 06:42:38;;;;;;;37.83;20.43;;;5.70;99.90;;;;;;7283129;19;20201;-84
2024/01/13 06:45:05;;;;;;;37.10;23.70;;;5.70;99.90;;;;;;7281663;19;21560;-83
2024/01/13 06:47:31;;;;;;;38.23;20.07;;;5.50;99.90;;;;;;7282687;19;20210;-84
2024/01/13 06:49:57;;;;;;;38.27;20.67;;;5.60;99.90;;;;;;7284861;19;20189;-83
2024/01/13 06:52:23;;;;;;;40.77;21.37;;;5.70;99.90;;;;;;7303816;19;20191;-82
2024/01/13 06:54:49;;;;;;;41.50;21.80;;;5.80;99.90;;;;;;7298403;19;20195;-83
2024/01/13 06:57:16;;;;;;;39.33;21.10;;;5.80;99.90;;;;;;7282992;19;21116;-82
2024/01/13 06:59:45;;;;;;;42.57;20.80;;;5.80;99.90;;;;;;7284874;19;20189;-82
2024/01/13 07:02:11;;;;;;;41.57;22.10;;;5.90;99.90;;;;;;7283895;19;20196;-83
2024/01/13 07:04:38;;;;;;;44.40;21.87;;;6.00;99.90;;;;;;7284735;19;20191;-84
2024/01/13 07:07:04;;;;;;;38.37;21.07;;;6.00;99.90;;;;;;7368889;19;20196;-83
2024/01/13 07:09:30;;;;;;;41.83;21.43;;;6.00;99.90;;;;;;7394431;19;20133;-82
2024/01/13 07:11:56;;;;;;;38.87;21.73;;;6.00;99.90;;;;;;7303022;19;20208;-82
2024/01/13 07:14:22;;;;;;;41.53;20.57;;;5.90;99.90;;;;;;7305002;19;20208;-85
2024/01/13 07:16:48;;;;;;;40.57;22.23;;;5.90;99.90;;;;;;7323741;19;20212;-82
2024/01/13 07:19:15;;;;;;;50.40;22.60;;;5.80;99.90;;;;;;7281391;19;20220;-82
2024/01/13 07:21:41;;;;;;;47.10;23.10;;;5.90;99.90;;;;;;7324031;19;20219;-84
2024/01/13 07:24:11;;;;;;;45.13;22.37;;;5.80;99.90;;;;;;7282430;19;20188;-84
2024/01/13 07:26:41;;;;;;;45.23;22.40;;;5.90;99.90;;;;;;7277704;19;20203;-83
2024/01/13 07:29:07;;;;;;;42.20;21.40;;;5.80;99.90;;;;;;7284313;19;20277;-84
2024/01/13 07:31:33;;;;;;;39.40;20.60;;;5.90;99.90;;;;;;7284820;19;20181;-84
2024/01/13 07:33:59;;;;;;;45.73;22.93;;;5.80;99.90;;;;;;7283853;19;20188;-84
2024/01/13 07:36:24;;;;;;;40.33;22.47;;;5.70;99.90;;;;;;7284484;19;20231;-83
2024/01/13 07:38:50;;;;;;;42.50;22.60;;;5.80;99.90;;;;;;7305758;19;20200;-86
2024/01/13 07:41:16;;;;;;;42.47;22.63;;;5.80;99.90;;;;;;7285212;19;20650;-83
2024/01/13 07:43:44;;;;;;;48.80;22.90;;;5.70;99.90;;;;;;7288927;19;20186;-88
2024/01/13 07:46:12;;;;;;;43.13;22.67;;;5.80;99.90;;;;;;7292130;19;20189;-86
2024/01/13 07:48:39;;;;;;;45.27;23.13;;;5.80;99.90;;;;;;7287609;19;20184;-85
2024/01/13 07:51:05;;;;;;;39.37;21.23;;;5.70;99.90;;;;;;7288629;19;20542;-86
2024/01/13 07:53:31;;;;;;;44.00;21.53;;;5.60;99.90;;;;;;7286554;19;20184;-85
2024/01/13 07:55:58;;;;;;;44.40;21.73;;;5.60;99.90;;;;;;7289406;19;20724;-88
2024/01/13 07:58:24;;;;;;;42.83;21.23;;;5.30;99.90;;;;;;7296895;19;20619;-85
2024/01/13 08:00:50;;;;;;;41.93;21.20;;;5.20;99.90;;;;;;7305368;19;20185;-86
2024/01/13 08:03:15;;;;;;;40.50;21.90;;;5.30;99.90;;;;;;7282879;19;20185;-86
2024/01/13 08:05:41;;;;;;;41.97;22.13;;;5.20;99.90;;;;;;7285875;19;20191;-85
2024/01/13 08:08:07;;;;;;;39.87;20.67;;;5.20;99.90;;;;;;7284295;19;20218;-86
2024/01/13 08:10:36;;;;;;;41.53;20.57;;;5.20;99.90;;;;;;7283995;19;20189;-86
2024/01/13 08:13:03;;;;;;;39.33;20.57;;;5.20;99.90;;;;;;7285887;19;20210;-85
2024/01/13 08:15:28;;;;;;;40.27;20.17;;;5.20;99.90;;;;;;7283678;19;20655;-85
2024/01/13 08:17:55;;;;;;;40.70;19.67;;;5.30;99.90;;;;;;7292968;19;20196;-84
2024/01/13 08:20:21;;;;;;;39.63;20.83;;;5.30;99.90;;;;;;7304660;19;20248;-85
2024/01/13 08:22:46;;;;;;;36.10;20.37;;;5.40;99.90;;;;;;7279738;19;20682;-85
2024/01/13 08:25:13;;;;;;;35.50;20.37;;;5.40;99.90;;;;;;7284438;19;20329;-85
2024/01/13 08:27:42;;;;;;;35.83;19.73;;;5.50;99.90;;;;;;7306091;19;20189;-85
2024/01/13 08:30:08;;;;;;;40.03;20.30;;;5.50;99.90;;;;;;7395338;19;20157;-86
2024/01/13 08:32:35;;;;;;;39.03;21.17;;;5.50;99.90;;;;;;7349323;19;20189;-89
2024/01/13 08:35:01;;;;;;;39.00;22.57;;;5.50;99.90;;;;;;7288808;19;20192;-91
2024/01/13 08:37:27;;;;;;;41.60;23.53;;;5.60;99.90;;;;;;7285159;19;20192;-93
2024/01/13 08:39:53;;;;;;;39.03;21.20;;;5.70;99.90;;;;;;7305767;19;20181;-90
2024/01/13 08:42:19;;;;;;;37.13;20.17;;;5.70;99.90;;;;;;7303030;19;20197;-91
2024/01/13 08:44:48;;;;;;;38.53;19.87;;;5.60;99.90;;;;;;7291055;19;20193;-90
2024/01/13 08:47:13;;;;;;;35.47;21.10;;;5.70;99.90;;;;;;7288988;19;20204;-92
2024/01/13 08:49:42;;;;;;;40.83;21.33;;;5.70;99.90;;;;;;7288568;19;20244;-91
2024/01/13 08:52:09;;;;;;;36.20;20.77;;;5.80;99.90;;;;;;7287197;19;20554;-91
2024/01/13 08:54:36;;;;;;;39.27;21.50;;;5.80;99.90;;;;;;7290668;19;20687;-93
2024/01/13 08:57:05;;;;;;;41.13;21.10;;;5.80;99.90;;;;;;7273982;19;20185;-92
2024/01/13 08:59:33;;;;;;;38.73;21.07;;;5.70;99.90;;;;;;7292251;19;20188;-89
2024/01/13 09:02:00;;;;;;;39.33;20.93;;;5.70;99.90;;;;;;7277085;19;20191;-91
2024/01/13 09:04:26;;;;;;;37.37;19.80;;;5.50;99.90;;;;;;7289133;19;20204;-91
2024/01/13 09:06:52;;;;;;;42.73;23.10;;;5.50;99.90;;;;;;7309456;19;20648;-92
2024/01/13 09:09:21;;;;;;;49.97;26.27;;;5.50;99.90;;;;;;7287867;19;20188;-91
2024/01/13 09:11:52;;;;;;;54.37;29.60;;;5.50;99.90;;;;;;7287469;19;20248;-92
2024/01/13 09:14:18;;;;;;;47.53;25.43;;;5.40;99.90;;;;;;7287627;19;20188;-92
2024/01/13 09:16:44;;;;;;;42.33;24.90;;;5.40;99.90;;;;;;7284357;19;20199;-93
2024/01/13 09:19:10;;;;;;;41.43;22.87;;;5.40;99.90;;;;;;7283416;19;20183;-92
2024/01/13 09:21:36;;;;;;;38.97;24.07;;;5.30;99.90;;;;;;7283053;19;20189;-93
2024/01/13 09:24:02;;;;;;;39.70;21.47;;;5.40;99.90;;;;;;7309382;19;20224;-91
2024/01/13 09:26:29;;;;;;;42.33;21.97;;;5.50;99.90;;;;;;7341015;19;20202;-91
2024/01/13 09:28:57;;;;;;;39.60;21.63;;;5.60;99.90;;;;;;7300904;19;20199;-89
2024/01/13 09:31:23;;;;;;;35.23;21.10;;;5.60;99.90;;;;;;7307828;19;20221;-90
2024/01/13 09:33:49;;;;;;;36.83;21.73;;;5.60;99.90;;;;;;7287993;19;20181;-90
2024/01/13 09:36:15;;;;;;;38.40;21.90;;;5.70;99.90;;;;;;7282474;19;20772;-90
2024/01/13 09:38:41;;;;;;;37.93;22.07;;;5.80;99.90;;;;;;7283311;19;20190;-91
2024/01/13 09:41:08;;;;;;;38.97;22.70;;;5.80;99.90;;;;;;7304485;19;20196;-90
2024/01/13 09:43:50;;;;;;;36.00;20.97;;;5.70;99.90;;;;;;7285891;19;20209;-91
2024/01/13 09:46:16;;;;;;;38.63;22.40;;;5.70;99.90;;;;;;7306853;19;20584;-90
2024/01/13 09:48:47;;;;;;;38.10;22.13;;;5.80;99.90;;;;;;7287559;19;20208;-90
2024/01/13 09:51:13;;;;;;;37.50;21.83;;;5.80;99.90;;;;;;7283401;19;20191;-91
2024/01/13 09:53:47;;;;;;;34.70;20.10;;;5.80;99.90;;;;;;7285290;19;20539;-91
2024/01/13 09:56:19;;;;;;;38.57;21.73;;;5.70;99.90;;;;;;7286515;19;20291;-90
2024/01/13 09:58:44;;;;;;;34.87;20.33;;;5.60;99.90;;;;;;7287238;19;20196;-91
2024/01/13 10:01:11;;;;;;;36.23;21.43;;;5.60;99.90;;;;;;7286366;19;20636;-91
2024/01/13 10:03:37;;;;;;;38.53;22.30;;;5.50;99.90;;;;;;7290116;19;20232;-92
2024/01/13 10:06:03;;;;;;;37.70;21.07;;;5.50;99.90;;;;;;7291698;19;20198;-85
2024/01/13 10:08:32;;;;;;;40.03;21.97;;;5.50;99.90;;;;;;7287927;19;20240;-85
2024/01/13 10:11:02;;;;;;;39.10;21.37;;;5.60;99.90;;;;;;7287391;19;20200;-85
2024/01/13 10:13:29;;;;;;;40.60;21.13;;;5.60;99.90;;;;;;7288899;19;20734;-85
2024/01/13 10:15:55;;;;;;;39.57;20.30;;;5.60;99.90;;;;;;7291675;19;20198;-86
2024/01/13 10:18:23;;;;;;;35.90;20.20;;;5.60;99.90;;;;;;7310048;19;20189;-85
2024/01/13 10:20:49;;;;;;;37.40;20.77;;;5.40;99.90;;;;;;7289371;19;20248;-86
2024/01/13 10:23:16;;;;;;;36.80;20.50;;;5.60;99.90;;;;;;7285414;19;20186;-85
2024/01/13 10:25:42;;;;;;;38.20;21.20;;;5.60;99.90;;;;;;7286571;19;20200;-87
2024/01/13 10:28:08;;;;;;;36.80;21.43;;;5.50;99.90;;;;;;7286953;19;20213;-85
2024/01/13 10:30:34;;;;;;;41.10;21.83;;;5.50;99.90;;;;;;7284393;19;20231;-85
2024/01/13 10:33:00;;;;;;;39.90;22.27;;;5.40;99.90;;;;;;7286608;19;20188;-85
2024/01/13 10:35:29;;;;;;;38.20;21.57;;;5.50;99.90;;;;;;7285415;19;20188;-85
2024/01/13 10:37:58;;;;;;;40.17;21.00;;;5.60;99.90;;;;;;7300654;19;20189;-84
2024/01/13 10:40:24;;;;;;;40.10;21.70;;;5.60;99.90;;;;;;7308388;19;20189;-84
2024/01/13 10:42:57;;;;;;;42.13;21.27;;;5.70;99.90;;;;;;7285841;19;20188;-85
2024/01/13 10:45:24;;;;;;;38.37;20.70;;;5.60;99.90;;;;;;7286626;19;20204;-83
2024/01/13 10:47:52;;;;;;;37.67;21.27;;;5.60;99.90;;;;;;7285869;19;20204;-87
2024/01/13 10:50:19;;;;;;;38.50;21.43;;;5.70;99.90;;;;;;7285525;19;20290;-85
2024/01/13 10:53:11;;;;;;;38.10;21.57;;;5.80;99.90;;;;;;7287606;19;20287;-84
2024/01/13 10:55:39;;;;;;;38.97;20.57;;;6.00;99.90;;;;;;7187156;19;2004601;-85
2024/01/13 10:58:05;;;;;;;35.97;21.13;;;5.90;99.90;;;;;;7290432;19;20203;-85
2024/01/13 11:00:31;;;;;;;40.70;21.90;;;5.80;99.90;;;;;;7280872;19;20185;-85
2024/01/13 11:02:59;;;;;;;39.80;21.27;;;5.90;99.90;;;;;;7289800;19;20193;-84
2024/01/13 11:05:28;;;;;;;39.60;21.43;;;5.90;99.90;;;;;;7298508;19;20185;-83
2024/01/13 11:07:55;;;;;;;39.97;21.13;;;6.00;99.90;;;;;;7306791;19;20200;-83
2024/01/13 11:10:28;;;;;;;35.03;21.23;;;6.10;99.90;;;;;;7308090;19;21006;-85
2024/01/13 11:13:13;;;;;;;38.23;21.47;;;6.10;99.90;;;;;;7286089;19;20216;-85
2024/01/13 11:15:43;;;;;;;36.10;19.80;;;6.10;99.90;;;;;;7186074;19;2004952;-86
2024/01/13 11:18:12;;;;;;;35.17;20.43;;;6.20;99.90;;;;;;7287702;19;20204;-85
2024/01/13 11:21:03;;;;;;;39.67;19.43;;;6.30;99.90;;;;;;7287616;19;20197;-86
2024/01/13 11:23:38;;;;;;;38.00;21.37;;;6.20;99.90;;;;;;7264649;19;20213;-87
2024/01/13 11:26:04;;;;;;;37.20;20.87;;;6.20;99.90;;;;;;7286229;19;20213;-86
2024/01/13 11:28:49;;;;;;;39.07;21.77;;;6.20;99.90;;;;;;7286780;19;20653;-86
2024/01/13 11:31:38;;;;;;;35.40;20.57;;;6.20;99.90;;;;;;7286447;19;20199;-85
2024/01/13 11:34:06;;;;;;;39.47;22.23;;;6.20;99.90;;;;;;7184460;19;2004438;-86
2024/01/13 11:36:38;;;;;;;41.03;21.60;;;6.20;99.90;;;;;;7285408;19;20197;-86
2024/01/13 11:39:06;;;;;;;40.53;21.10;;;6.10;99.90;;;;;;7286519;19;20230;-85
2024/01/13 11:41:39;;;;;;;38.20;21.40;;;6.10;99.90;;;;;;7287629;19;20219;-86
2024/01/13 11:44:08;;;;;;;39.50;21.77;;;6.00;99.90;;;;;;7285579;19;20190;-86
2024/01/13 11:46:38;;;;;;;40.90;23.43;;;5.90;99.90;;;;;;7286619;19;20195;-85
2024/01/13 11:49:05;;;;;;;41.00;21.93;;;5.90;99.90;;;;;;7284804;19;20190;-86
2024/01/13 11:51:56;;;;;;;44.13;23.07;;;6.00;99.90;;;;;;7285971;19;20192;-85
2024/01/13 11:54:23;;;;;;;43.37;23.97;;;6.00;99.90;;;;;;7286482;19;20191;-86
2024/01/13 11:56:49;;;;;;;39.07;21.93;;;5.90;99.90;;;;;;7285936;19;20267;-86
2024/01/13 11:59:16;;;;;;;40.80;23.63;;;6.00;99.90;;;;;;7285341;19;20198;-86
2024/01/13 12:01:44;;;;;;;39.77;24.20;;;5.90;99.90;;;;;;7284644;19;20603;-87
2024/01/13 12:04:10;;;;;;;48.97;27.93;;;5.90;99.90;;;;;;7284771;19;20180;-86
2024/01/13 12:06:36;;;;;;;41.83;21.93;;;6.00;99.90;;;;;;7285632;19;20192;-86
2024/01/13 12:09:03;;;;;;;42.00;23.37;;;6.10;99.90;;;;;;7285909;19;20224;-88
2024/01/13 12:11:28;;;;;;;47.47;23.23;;;6.20;99.90;;;;;;7286395;19;20194;-86
2024/01/13 12:13:54;;;;;;;38.77;21.93;;;6.30;99.90;;;;;;7311124;19;20301;-85
2024/01/13 12:16:21;;;;;;;39.63;23.17;;;6.30;99.90;;;;;;7289082;19;20273;-84
2024/01/13 12:18:48;;;;;;;40.47;22.40;;;6.30;99.90;;;;;;7285944;19;20192;-87
2024/01/13 12:21:14;;;;;;;41.47;22.07;;;6.30;99.90;;;;;;7287825;19;20189;-87
2024/01/13 12:23:42;;;;;;;42.93;22.57;;;6.30;99.90;;;;;;7288331;19;20217;-85
2024/01/13 12:26:09;;;;;;;46.23;23.33;;;6.30;99.90;;;;;;7286575;19;20599;-87
2024/01/13 12:28:35;;;;;;;41.60;23.33;;;6.20;99.90;;;;;;7284346;19;20726;-86
2024/01/13 12:31:05;;;;;;;43.67;23.93;;;6.10;99.90;;;;;;7286781;19;20192;-89
2024/01/13 12:33:40;;;;;;;42.53;22.60;;;6.10;99.90;;;;;;7394693;19;20489;-90